createdAt,value
2022-11-01T00:02:15.868Z,12.40
2022-11-01T00:04:43.761Z,11.70
2022-11-01T00:07:11.561Z,12.40
2022-11-01T00:09:39.378Z,9.80
2022-11-01T00:12:07.152Z,10.60
2022-11-01T00:14:34.940Z,5.50
2022-11-01T00:17:03.231Z,9.00
2022-11-01T00:19:33.821Z,8.30
2022-11-01T00:22:02.385Z,8.10
2022-11-01T00:24:31.707Z,8.30
2022-11-01T00:27:00.230Z,8.50
2022-11-01T00:29:28.084Z,9.10
2022-11-01T00:31:55.878Z,8.10
2022-11-01T00:34:23.719Z,8.30
2022-11-01T00:36:51.467Z,7.80
2022-11-01T00:39:19.309Z,7.50
2022-11-01T00:41:47.281Z,7.00
2022-11-01T00:44:15.045Z,8.30
2022-11-01T00:46:42.840Z,8.40
2022-11-01T00:49:10.661Z,8.70
2022-11-01T00:51:38.438Z,9.40
2022-11-01T00:54:06.415Z,3.90
2022-11-01T00:56:34.281Z,9.90
2022-11-01T00:59:02.205Z,6.20
2022-11-01T01:01:32.609Z,9.10
2022-11-01T01:04:00.719Z,10.40
2022-11-01T01:06:28.478Z,11.60
2022-11-01T01:09:00.520Z,15.40
2022-11-01T01:11:29.117Z,14.30
2022-11-01T01:14:05.624Z,12.40
2022-11-01T01:16:36.206Z,13.10
2022-11-01T01:19:04.385Z,15.70
2022-11-01T01:21:38.173Z,17.30
2022-11-01T01:24:06.286Z,18.30
2022-11-01T01:26:34.013Z,16.00
2022-11-01T01:29:01.862Z,13.60
2022-11-01T01:31:29.828Z,13.70
2022-11-01T01:33:58.591Z,14.40
2022-11-01T01:36:26.300Z,13.90
2022-11-01T01:38:54.092Z,20.80
2022-11-01T01:41:40.602Z,18.20
2022-11-01T01:44:46.584Z,15.80
2022-11-01T01:47:28.188Z,14.30
2022-11-01T01:50:22.300Z,16.20
2022-11-01T01:53:01.820Z,16.30
2022-11-01T01:55:41.776Z,16.10
2022-11-01T01:58:12.069Z,16.40
2022-11-01T02:00:42.832Z,15.40
2022-11-01T02:03:12.539Z,12.40
2022-11-01T02:05:54.073Z,14.20
2022-11-01T02:08:28.105Z,17.60
2022-11-01T02:11:05.827Z,13.00
2022-11-01T02:13:34.045Z,17.20
2022-11-01T02:16:01.663Z,13.90
2022-11-01T02:18:39.999Z,17.30
2022-11-01T02:21:30.732Z,19.90
2022-11-01T02:24:23.282Z,17.90
2022-11-01T02:27:00.425Z,11.40
2022-11-01T02:29:51.037Z,8.20
2022-11-01T02:32:40.782Z,18.60
2022-11-01T02:35:22.932Z,14.20
2022-11-01T02:37:53.597Z,20.50
2022-11-01T02:40:29.247Z,19.30
2022-11-01T02:43:02.903Z,13.10
2022-11-01T02:45:41.399Z,19.20
2022-11-01T02:48:09.272Z,18.70
2022-11-01T02:50:45.656Z,17.00
2022-11-01T02:55:41.783Z,15.10
2022-11-01T02:58:20.064Z,15.30
2022-11-01T03:00:47.962Z,22.00
2022-11-01T03:03:17.792Z,20.60
2022-11-01T03:05:48.587Z,18.70
2022-11-01T03:08:25.866Z,16.20
2022-11-01T03:11:02.872Z,16.90
2022-11-01T03:14:20.201Z,16.90
2022-11-01T03:17:00.550Z,19.00
2022-11-01T03:19:52.566Z,16.10
2022-11-01T03:22:28.813Z,9.70
2022-11-01T03:25:31.804Z,16.30
2022-11-01T03:28:04.565Z,14.10
2022-11-01T03:30:34.442Z,7.70
2022-11-01T03:33:02.477Z,19.80
2022-11-01T03:35:40.553Z,10.30
2022-11-01T03:38:13.809Z,16.80
2022-11-01T03:40:47.144Z,13.40
2022-11-01T03:43:17.698Z,13.90
2022-11-01T03:45:45.699Z,17.30
2022-11-01T03:48:13.464Z,19.80
2022-11-01T03:50:47.478Z,15.80
2022-11-01T03:53:15.920Z,19.50
2022-11-01T03:55:44.366Z,22.10
2022-11-01T03:58:12.160Z,21.00
2022-11-01T04:00:42.872Z,20.00
2022-11-01T04:03:12.118Z,19.30
2022-11-01T04:05:41.594Z,18.90
2022-11-01T04:08:11.553Z,20.00
2022-11-01T04:10:39.380Z,20.20
2022-11-01T04:13:07.081Z,19.00
2022-11-01T04:15:53.684Z,18.20
2022-11-01T04:18:42.464Z,13.90
2022-11-01T04:21:14.489Z,16.70
2022-11-01T04:23:43.803Z,16.00
2022-11-01T04:26:17.701Z,19.20
2022-11-01T04:28:57.291Z,13.80
2022-11-01T04:31:34.079Z,15.20
2022-11-01T04:34:03.763Z,13.20
2022-11-01T04:36:31.824Z,15.00
2022-11-01T04:38:59.871Z,12.80
2022-11-01T04:41:29.418Z,14.40
2022-11-01T04:43:59.232Z,12.20
2022-11-01T04:46:31.554Z,12.30
2022-11-01T04:48:59.369Z,10.00
2022-11-01T04:51:27.232Z,9.40
2022-11-01T04:53:55.054Z,11.50
2022-11-01T04:56:22.865Z,7.50
2022-11-01T04:58:50.705Z,11.90
2022-11-01T05:01:18.599Z,12.20
2022-11-01T05:03:48.720Z,13.00
2022-11-01T05:06:16.528Z,14.30
2022-11-01T05:08:44.495Z,13.90
2022-11-01T05:11:12.400Z,15.10
2022-11-01T05:13:40.180Z,13.40
2022-11-01T05:16:19.286Z,13.40
2022-11-01T05:18:48.438Z,11.20
2022-11-01T05:21:16.453Z,11.80
2022-11-01T05:23:44.264Z,12.30
2022-11-01T05:26:11.953Z,7.20
2022-11-01T05:28:39.763Z,14.10
2022-11-01T05:31:07.718Z,14.20
2022-11-01T05:33:35.477Z,14.10
2022-11-01T05:36:03.459Z,12.60
2022-11-01T05:38:31.260Z,13.90
2022-11-01T05:41:02.684Z,15.30
2022-11-01T05:43:30.693Z,15.50
2022-11-01T05:45:58.556Z,11.00
2022-11-01T05:48:26.392Z,13.50
2022-11-01T05:50:54.224Z,13.00
2022-11-01T05:53:22.950Z,15.40
2022-11-01T05:55:51.111Z,13.50
2022-11-01T05:58:18.810Z,11.60
2022-11-01T06:00:46.555Z,6.60
2022-11-01T06:03:14.404Z,9.80
2022-11-01T06:05:42.096Z,9.00
2022-11-01T06:08:09.841Z,9.10
2022-11-01T06:10:37.633Z,12.90
2022-11-01T06:13:05.742Z,15.60
2022-11-01T06:15:37.120Z,14.20
2022-11-01T06:18:08.185Z,13.80
2022-11-01T06:20:39.310Z,14.00
2022-11-01T06:23:11.468Z,11.00
2022-11-01T06:25:39.178Z,11.70
2022-11-01T06:28:06.961Z,10.30
2022-11-01T06:30:34.755Z,9.70
2022-11-01T06:33:02.932Z,8.90
2022-11-01T06:35:30.893Z,9.60
2022-11-01T06:38:09.371Z,8.80
2022-11-01T06:40:37.781Z,9.90
2022-11-01T06:43:06.355Z,7.40
2022-11-01T06:45:34.333Z,9.60
2022-11-01T06:48:02.415Z,7.60
2022-11-01T06:50:30.705Z,8.40
2022-11-01T06:52:59.749Z,11.40
2022-11-01T06:55:28.928Z,10.20
2022-11-01T06:57:59.645Z,11.20
2022-11-01T07:00:29.137Z,9.10
2022-11-01T07:03:01.970Z,5.70
2022-11-01T07:05:32.864Z,10.40
2022-11-01T07:08:06.277Z,11.40
2022-11-01T07:10:34.362Z,11.80
2022-11-01T07:13:03.819Z,10.10
2022-11-01T07:15:32.118Z,10.60
2022-11-01T07:18:02.543Z,12.60
2022-11-01T07:20:32.312Z,10.70
2022-11-01T07:23:05.739Z,16.20
2022-11-01T07:25:33.803Z,14.40
2022-11-01T07:28:01.770Z,15.50
2022-11-01T07:30:29.483Z,14.20
2022-11-01T07:32:59.506Z,13.50
2022-11-01T07:35:27.683Z,16.00
2022-11-01T07:38:01.991Z,14.80
2022-11-01T07:40:32.740Z,13.80
2022-11-01T07:43:01.268Z,12.50
2022-11-01T07:45:31.343Z,14.10
2022-11-01T07:48:02.695Z,13.80
2022-11-01T07:50:32.553Z,9.70
2022-11-01T07:53:05.853Z,8.50
2022-11-01T07:55:35.285Z,7.50
2022-11-01T07:58:03.983Z,8.10
2022-11-01T08:03:07.114Z,9.20
2022-11-01T08:05:35.887Z,9.40
2022-11-01T08:08:04.880Z,8.00
2022-11-01T08:10:34.185Z,6.10
2022-11-01T08:13:09.021Z,10.80
2022-11-01T08:15:36.768Z,10.90
2022-11-01T08:18:04.971Z,11.30
2022-11-01T08:20:33.191Z,8.60
2022-11-01T08:23:01.161Z,6.60
2022-11-01T08:25:29.578Z,8.50
2022-11-01T08:28:22.805Z,7.40
2022-11-01T08:30:50.990Z,10.30
2022-11-01T08:33:18.645Z,8.40
2022-11-01T08:35:50.455Z,9.80
2022-11-01T08:38:19.389Z,10.10
2022-11-01T08:40:48.194Z,10.80
2022-11-01T08:43:16.991Z,13.10
2022-11-01T08:45:44.942Z,10.50
2022-11-01T08:48:13.350Z,8.80
2022-11-01T08:50:41.117Z,7.80
2022-11-01T08:53:14.130Z,5.60
2022-11-01T08:55:42.166Z,10.10
2022-11-01T08:58:10.185Z,9.80
2022-11-01T09:00:38.023Z,8.10
2022-11-01T09:03:05.958Z,6.80
2022-11-01T09:05:34.595Z,6.60
2022-11-01T09:08:03.164Z,6.70
2022-11-01T09:10:31.345Z,7.50
2022-11-01T09:13:00.723Z,10.10
2022-11-01T09:15:29.070Z,7.10
2022-11-01T09:17:56.913Z,7.00
2022-11-01T09:20:24.750Z,8.60
2022-11-01T09:22:52.785Z,7.30
2022-11-01T09:25:20.709Z,6.50
2022-11-01T09:27:58.022Z,9.40
2022-11-01T09:30:26.258Z,9.60
2022-11-01T09:32:54.128Z,12.00
2022-11-01T09:35:24.023Z,8.30
2022-11-01T09:38:00.516Z,7.70
2022-11-01T09:40:33.081Z,8.00
2022-11-01T09:43:02.097Z,6.00
2022-11-01T09:45:35.511Z,9.00
2022-11-01T09:48:05.821Z,8.90
2022-11-01T09:50:37.783Z,10.50
2022-11-01T09:53:14.422Z,12.70
2022-11-01T09:55:51.657Z,12.10
2022-11-01T09:58:42.286Z,7.80
2022-11-01T10:01:31.658Z,11.60
2022-11-01T10:04:25.100Z,7.60
2022-11-01T10:07:15.948Z,8.80
2022-11-01T10:10:04.951Z,8.10
2022-11-01T10:12:59.549Z,7.90
2022-11-01T10:15:51.491Z,11.10
2022-11-01T10:18:29.683Z,8.00
2022-11-01T10:21:00.908Z,5.50
2022-11-01T10:23:40.601Z,10.00
2022-11-01T10:26:13.956Z,5.70
2022-11-01T10:28:49.635Z,7.10
2022-11-01T10:31:22.379Z,6.40
2022-11-01T10:34:02.615Z,6.40
2022-11-01T10:36:39.197Z,7.80
2022-11-01T10:39:58.948Z,9.30
2022-11-01T10:42:30.074Z,6.30
2022-11-01T10:45:08.881Z,8.60
2022-11-01T10:47:36.782Z,7.70
2022-11-01T10:50:08.199Z,7.80
2022-11-01T10:53:04.192Z,6.00
2022-11-01T10:55:41.617Z,6.70
2022-11-01T10:58:21.634Z,6.40
2022-11-01T11:00:50.631Z,7.50
2022-11-01T11:03:26.255Z,8.30
2022-11-01T11:05:56.616Z,5.50
2022-11-01T11:08:25.394Z,6.80
2022-11-01T11:10:53.349Z,8.00
2022-11-01T11:13:24.432Z,9.10
2022-11-01T11:16:02.373Z,7.20
2022-11-01T11:18:39.126Z,6.50
2022-11-01T11:21:09.904Z,7.90
2022-11-01T11:23:44.325Z,9.30
2022-11-01T11:26:19.701Z,10.10
2022-11-01T11:28:54.930Z,8.10
2022-11-01T11:31:28.787Z,9.40
2022-11-01T11:34:27.374Z,7.40
2022-11-01T11:37:00.789Z,7.10
2022-11-01T11:39:35.851Z,10.00
2022-11-01T11:42:24.613Z,7.30
2022-11-01T11:45:14.661Z,10.00
2022-11-01T11:47:43.106Z,9.10
2022-11-01T11:50:32.561Z,8.70
2022-11-01T11:53:03.777Z,6.90
2022-11-01T11:55:35.954Z,11.10
2022-11-01T11:58:06.202Z,7.10
2022-11-01T12:00:38.133Z,6.80
2022-11-01T12:03:08.152Z,7.00
2022-11-01T12:08:04.793Z,7.60
2022-11-01T12:10:32.540Z,6.10
2022-11-01T12:13:02.814Z,7.10
2022-11-01T12:15:41.139Z,6.60
2022-11-01T12:18:16.540Z,7.20
2022-11-01T12:20:50.873Z,6.50
2022-11-01T12:23:28.845Z,6.70
2022-11-01T12:26:01.773Z,5.60
2022-11-01T12:28:55.299Z,6.40
2022-11-01T12:31:25.478Z,6.70
2022-11-01T12:34:06.592Z,5.90
2022-11-01T12:36:43.828Z,8.50
2022-11-01T12:39:40.447Z,7.40
2022-11-01T12:42:12.236Z,8.10
2022-11-01T12:44:48.303Z,6.70
2022-11-01T12:47:44.368Z,8.80
2022-11-01T12:50:20.228Z,5.60
2022-11-01T12:52:58.725Z,6.00
2022-11-01T12:55:39.696Z,8.30
2022-11-01T12:58:28.937Z,9.60
2022-11-01T13:01:40.161Z,9.30
2022-11-01T13:04:31.646Z,8.70
2022-11-01T13:07:25.107Z,7.60
2022-11-01T13:10:03.160Z,7.00
2022-11-01T13:12:44.078Z,6.20
2022-11-01T13:15:29.563Z,9.20
2022-11-01T13:18:16.228Z,5.00
2022-11-01T13:20:54.586Z,10.40
2022-11-01T13:23:57.735Z,7.80
2022-11-01T13:26:54.890Z,5.40
2022-11-01T13:29:38.423Z,9.00
2022-11-01T13:32:21.496Z,9.00
2022-11-01T13:35:17.523Z,9.90
2022-11-01T13:37:58.477Z,8.50
2022-11-01T13:40:37.347Z,7.90
2022-11-01T13:43:17.047Z,7.30
2022-11-01T13:46:07.819Z,10.60
2022-11-01T13:49:06.043Z,9.80
2022-11-01T13:52:02.657Z,8.90
2022-11-01T13:54:35.678Z,8.30
2022-11-01T13:57:15.934Z,7.90
2022-11-01T14:00:06.946Z,8.00
2022-11-01T14:02:49.452Z,5.70
2022-11-01T14:05:17.227Z,11.70
2022-11-01T14:07:44.801Z,11.00
2022-11-01T14:10:19.103Z,10.00
2022-11-01T14:13:05.658Z,9.10
2022-11-01T14:16:19.598Z,8.50
2022-11-01T14:19:02.856Z,10.60
2022-11-01T14:21:51.683Z,11.80
2022-11-01T14:24:29.463Z,11.40
2022-11-01T14:29:52.507Z,8.40
2022-11-01T14:32:23.425Z,9.60
2022-11-01T14:35:25.390Z,8.80
2022-11-01T14:37:57.265Z,13.30
2022-11-01T14:40:41.590Z,11.40
2022-11-01T14:43:27.994Z,9.40
2022-11-01T14:46:04.201Z,10.10
2022-11-01T14:49:20.072Z,13.20
2022-11-01T14:51:56.759Z,9.30
2022-11-01T14:54:56.349Z,9.70
2022-11-01T14:57:29.479Z,6.90
2022-11-01T14:59:58.622Z,10.60
2022-11-01T15:02:28.409Z,11.30
2022-11-01T15:05:00.904Z,8.80
2022-11-01T15:07:35.649Z,10.20
2022-11-01T15:10:09.705Z,7.70
2022-11-01T15:12:47.904Z,7.70
2022-11-01T15:15:24.784Z,12.10
2022-11-01T15:17:58.551Z,8.80
2022-11-01T15:20:31.993Z,11.60
2022-11-01T15:22:59.893Z,11.20
2022-11-01T15:25:27.897Z,10.70
2022-11-01T15:27:57.245Z,15.00
2022-11-01T15:30:30.667Z,14.60
2022-11-01T15:33:25.990Z,17.50
2022-11-01T15:35:59.643Z,14.60
2022-11-01T15:38:28.816Z,10.70
2022-11-01T15:40:56.794Z,16.30
2022-11-01T15:43:29.895Z,12.10
2022-11-01T15:46:01.196Z,13.20
2022-11-01T15:48:38.230Z,13.20
2022-11-01T15:51:09.416Z,10.90
2022-11-01T15:53:38.919Z,12.60
2022-11-01T15:56:18.145Z,10.30
2022-11-01T15:58:48.765Z,11.50
2022-11-01T16:01:22.184Z,8.90
2022-11-01T16:04:01.762Z,9.50
2022-11-01T16:06:52.936Z,10.50
2022-11-01T16:09:45.696Z,9.10
2022-11-01T16:12:27.754Z,11.00
2022-11-01T16:14:57.350Z,10.30
2022-11-01T16:17:33.696Z,12.30
2022-11-01T16:20:05.116Z,10.70
2022-11-01T16:22:38.087Z,10.50
2022-11-01T16:25:13.109Z,11.00
2022-11-01T16:28:07.568Z,9.90
2022-11-01T16:30:53.311Z,11.00
2022-11-01T16:33:36.714Z,9.60
2022-11-01T16:36:35.793Z,11.20
2022-11-01T16:39:31.416Z,10.80
2022-11-01T16:42:00.287Z,12.00
2022-11-01T16:44:28.262Z,13.30
2022-11-01T16:46:56.301Z,14.10
2022-11-01T16:49:27.995Z,11.10
2022-11-01T16:51:59.018Z,10.60
2022-11-01T16:54:27.492Z,12.40
2022-11-01T16:56:58.635Z,11.80
2022-11-01T16:59:38.707Z,14.60
2022-11-01T17:02:20.216Z,12.40
2022-11-01T17:04:52.168Z,10.40
2022-11-01T17:07:21.057Z,12.10
2022-11-01T17:09:49.018Z,10.90
2022-11-01T17:12:16.943Z,13.70
2022-11-01T17:14:46.355Z,15.70
2022-11-01T17:17:17.815Z,14.10
2022-11-01T17:19:50.412Z,12.30
2022-11-01T17:22:21.585Z,10.70
2022-11-01T17:24:50.166Z,13.30
2022-11-01T17:27:19.312Z,12.80
2022-11-01T17:29:47.749Z,15.00
2022-11-01T17:32:17.208Z,14.90
2022-11-01T17:34:46.036Z,16.90
2022-11-01T17:37:17.590Z,16.80
2022-11-01T17:39:46.467Z,16.20
2022-11-01T17:42:14.572Z,16.60
2022-11-01T17:45:02.920Z,15.90
2022-11-01T17:47:31.263Z,11.90
2022-11-01T17:49:59.223Z,12.10
2022-11-01T17:52:27.477Z,10.70
2022-11-01T17:54:57.121Z,10.60
2022-11-01T17:57:26.567Z,13.50
2022-11-01T17:59:55.020Z,16.60
2022-11-01T18:02:24.966Z,10.20
2022-11-01T18:04:54.969Z,12.90
2022-11-01T18:07:23.410Z,13.80
2022-11-01T18:09:51.822Z,12.90
2022-11-01T18:12:33.554Z,12.00
2022-11-01T18:15:34.631Z,12.30
2022-11-01T18:18:26.601Z,12.50
2022-11-01T18:21:22.880Z,15.10
2022-11-01T18:23:52.334Z,11.30
2022-11-01T18:26:26.330Z,12.20
2022-11-01T18:28:59.100Z,12.70
2022-11-01T18:31:42.866Z,13.30
2022-11-01T18:34:55.920Z,9.20
2022-11-01T18:37:23.731Z,11.40
2022-11-01T18:40:08.816Z,14.50
2022-11-01T18:42:37.427Z,15.10
2022-11-01T18:45:30.382Z,11.70
2022-11-01T18:48:31.284Z,12.60
2022-11-01T18:51:06.113Z,12.50
2022-11-01T18:53:34.711Z,11.30
2022-11-01T18:56:19.189Z,13.30
2022-11-01T18:58:47.148Z,14.40
2022-11-01T19:01:24.138Z,11.60
2022-11-01T19:04:10.432Z,13.00
2022-11-01T19:06:38.232Z,13.40
2022-11-01T19:09:24.158Z,14.10
2022-11-01T19:12:11.565Z,12.50
2022-11-01T19:14:40.283Z,14.10
2022-11-01T19:17:29.703Z,12.60
2022-11-01T19:19:59.788Z,13.90
2022-11-01T19:22:38.930Z,14.30
2022-11-01T19:25:21.552Z,18.00
2022-11-01T19:27:52.910Z,17.10
2022-11-01T19:30:25.030Z,15.00
2022-11-01T19:32:55.223Z,16.00
2022-11-01T19:35:23.222Z,15.80
2022-11-01T19:37:54.686Z,14.70
2022-11-01T19:40:31.305Z,14.70
2022-11-01T19:43:20.475Z,14.50
2022-11-01T19:45:53.692Z,14.60
2022-11-01T19:48:28.679Z,15.70
2022-11-01T19:50:56.468Z,12.70
2022-11-01T19:53:36.453Z,15.40
2022-11-01T19:56:06.842Z,15.60
2022-11-01T19:58:45.754Z,14.70
2022-11-01T20:01:16.746Z,14.90
2022-11-01T20:03:47.837Z,14.60
2022-11-01T20:06:17.010Z,11.40
2022-11-01T20:08:47.507Z,18.20
2022-11-01T20:11:15.251Z,13.30
2022-11-01T20:13:42.962Z,13.80
2022-11-01T20:16:10.753Z,11.00
2022-11-01T20:18:38.423Z,13.70
2022-11-01T20:21:06.596Z,14.60
2022-11-01T20:23:34.631Z,14.70
2022-11-01T20:26:06.786Z,16.50
2022-11-01T20:28:34.621Z,17.60
2022-11-01T20:31:02.304Z,16.30
2022-11-01T20:33:30.022Z,14.10
2022-11-01T20:35:58.524Z,16.60
2022-11-01T20:38:26.353Z,12.80
2022-11-01T20:40:54.084Z,16.10
2022-11-01T20:43:21.850Z,11.50
2022-11-01T20:45:49.797Z,15.90
2022-11-01T20:48:18.483Z,14.30
2022-11-01T20:50:46.498Z,15.70
2022-11-01T20:53:15.095Z,13.20
2022-11-01T20:55:43.128Z,11.70
2022-11-01T20:58:11.913Z,8.80
2022-11-01T21:00:39.929Z,13.50
2022-11-01T21:03:16.503Z,15.80
2022-11-01T21:05:46.565Z,18.80
2022-11-01T21:08:22.610Z,14.10
2022-11-01T21:11:03.413Z,15.50
2022-11-01T21:13:42.110Z,10.60
2022-11-01T21:16:20.157Z,13.10
2022-11-01T21:18:50.357Z,11.30
2022-11-01T21:21:17.957Z,11.70
2022-11-01T21:23:46.552Z,15.10
2022-11-01T21:26:23.502Z,15.10
2022-11-01T21:28:54.654Z,14.30
2022-11-01T21:31:37.901Z,11.20
2022-11-01T21:34:12.207Z,12.50
2022-11-01T21:36:41.204Z,14.10
2022-11-01T21:39:16.837Z,14.00
2022-11-01T21:41:52.406Z,16.00
2022-11-01T21:44:41.827Z,13.50
2022-11-01T21:47:10.413Z,14.90
2022-11-01T21:49:38.749Z,12.00
2022-11-01T21:52:08.705Z,14.80
2022-11-01T21:54:38.294Z,14.40
2022-11-01T21:57:08.367Z,12.30
2022-11-01T21:59:36.725Z,16.00
2022-11-01T22:02:06.412Z,14.40
2022-11-01T22:04:34.173Z,15.60
2022-11-01T22:07:04.753Z,15.80
2022-11-01T22:09:33.234Z,12.70
2022-11-01T22:12:01.486Z,10.90
2022-11-01T22:14:29.227Z,13.50
2022-11-01T22:16:57.052Z,12.90
2022-11-01T22:19:24.814Z,12.30
2022-11-01T22:21:52.651Z,12.20
2022-11-01T22:24:20.504Z,12.70
2022-11-01T22:26:48.282Z,12.70
2022-11-01T22:29:16.019Z,13.10
2022-11-01T22:31:43.753Z,11.30
2022-11-01T22:34:11.594Z,12.00
2022-11-01T22:36:42.318Z,11.40
2022-11-01T22:39:18.367Z,10.80
2022-11-01T22:41:46.107Z,10.50
2022-11-01T22:44:17.372Z,11.40
2022-11-01T22:46:57.886Z,12.10
2022-11-01T22:49:28.713Z,9.50
2022-11-01T22:52:02.176Z,9.50
2022-11-01T22:54:47.580Z,9.20
2022-11-01T22:57:16.678Z,11.10
2022-11-01T22:59:50.499Z,9.70
2022-11-01T23:02:29.234Z,9.80
2022-11-01T23:05:06.314Z,12.20
2022-11-01T23:07:39.320Z,10.00
2022-11-01T23:10:33.762Z,8.10
2022-11-01T23:13:31.238Z,9.90
2022-11-01T23:16:11.614Z,8.90
2022-11-01T23:18:42.725Z,10.30
2022-11-01T23:21:10.451Z,10.20
2022-11-01T23:23:42.175Z,10.40
2022-11-01T23:26:11.661Z,10.90
2022-11-01T23:28:48.932Z,9.20
2022-11-01T23:31:17.461Z,11.40
2022-11-01T23:33:46.968Z,10.90
2022-11-01T23:36:23.154Z,10.40
2022-11-01T23:41:38.087Z,9.00
2022-11-01T23:44:30.267Z,9.80
2022-11-01T23:47:04.473Z,10.30
2022-11-01T23:49:34.678Z,11.00
2022-11-01T23:52:23.975Z,10.80
2022-11-01T23:54:51.625Z,8.40
2022-11-01T23:57:21.560Z,11.10
2022-11-01T23:59:51.086Z,9.20
